Aviation Digital Data Service (ADDS)

Output produced by METARs form (1540 UTC 26 April 2015)
found at http://aviationweather.gov/adds/metars/
 
KPQI 261120Z 2612/2712 36003KT P6SM BKN013 
     FM261500 36004KT P6SM SCT025 BKN050 AMD LTD TO CLD VIS AND WIND